x

Milford Haven C.b. (03604) Weather Station

5:00 - Sun 1st Feb 2015 All times are GMT.

  • Wind
    24mph, 43mph gusts
  • Aire Temp 40°f
  • Sea Pressure 1004mb
  • Milford Haven C.b.
  • Milford Haven C.b.

More Historic Weather Station data

Upgrade to MSW Pro to gain access to the past 30 days of data for over 8000 Wavebouys and Weather Stations around the globe.

Join Pro

Comparision Forecast

View Surf forecast
   
dom 02/01 5:00 24 43 mph 1004mb 40f
4:00 24 40 mph 1004mb 40f
3:00 21 41 mph 1003mb 39f
2:00 24 44 mph 1003mb 39f
1:00 21 38 mph 1003mb 40f
12:00 24 43 mph 1003mb 40f
sáb 01/31 11:00 28 41 mph 1002mb 40f
10:00 23 43 mph 1002mb 40f
9:00 29 46 mph 1001mb 40f
8:00 26 44 mph 1001mb 40f
7:00 29 49 mph 1000mb 40f
6:00 26 47 mph 998mb 41f
5:00 26 45 mph 997mb 42f
4:00 26 47 mph 996mb 42f
3:00 30 51 mph 995mb 43f
2:00 28 45 mph 994mb 42f
1:00 29 43 mph 993mb 42f
12:00 30 46 mph 992mb 41f
11:00 31 48 mph 991mb 42f
10:00 30 47 mph 989mb 41f
9:00 30 46 mph 988mb 41f
8:00 31 47 mph 987mb 42f
7:00 25 45 mph 986mb 41f
6:00 25 41 mph 985mb 41f
5:00 23 39 mph 985mb 40f
4:00 22 38 mph 985mb 40f
3:00 21 37 mph 985mb 40f
2:00 21 34 mph 985mb 40f
1:00 23 40 mph 984mb 40f
12:00 21 36 mph 984mb 39f
vie 01/30 11:00 22 33 mph 984mb 40f
10:00 21 36 mph 984mb 40f
9:00 21 36 mph 984mb 40f
8:00 19 31 mph 984mb 40f
7:00 13
mph
984mb 41f
6:00 14
mph
983mb 42f
5:00 14
mph
983mb 42f
4:00 15
mph
984mb 43f
3:00 17
mph
984mb 44f
2:00 17 30 mph 984mb 44f
1:00 18 33 mph 984mb 45f
12:00 21 31 mph 984mb 44f
11:00 21 36 mph 984mb 44f
10:00 19 43 mph 984mb 44f
9:00 24 39 mph 984mb 43f
8:00 24 39 mph 983mb 43f
7:00 22 34 mph 983mb 42f
6:00 22 40 mph 983mb 41f
5:00 29 53 mph 982mb 41f
4:00 31 54 mph 980mb 42f
3:00 32 56 mph 979mb 42f
2:00 29 56 mph 979mb 42f
1:00 36 60 mph 980mb 43f
12:00 24 40 mph 981mb 43f
jue 01/29 11:00 21 36 mph 982mb 43f
10:00 21 40 mph 983mb 43f
9:00 23 39 mph 984mb 41f
8:00 22 38 mph 984mb 41f
7:00 22 40 mph 984mb 39f
6:00 23 43 mph 984mb 39f
5:00 25 47 mph 983mb 40f
4:00 28 47 mph 982mb 40f
3:00 31 52 mph 982mb 39f
2:00 19 44 mph 982mb 41f
1:00 24 46 mph 983mb 41f
12:00 21 43 mph 984mb 42f
11:00 22 39 mph 985mb 42f
10:00 18 37 mph 987mb 42f
9:00 18 37 mph 988mb 41f
8:00 17 33 mph 989mb 42f
7:00 16 41 mph 991mb 42f
6:00 19 37 mph 992mb 42f
5:00 19 39 mph 993mb 42f
4:00 21 36 mph 995mb 42f
3:00 21 40 mph 996mb 42f
2:00 18 34 mph 998mb 42f
1:00 18 34 mph 999mb 41f
12:00 16 33 mph 1000mb 41f
mié 01/28 11:00 18 33 mph 1001mb 42f
10:00 21 38 mph 1002mb 42f
9:00 22 39 mph 1003mb 42f
8:00 21 39 mph 1004mb 42f
7:00 19 37 mph 1005mb 41f
6:00 18 36 mph 1005mb 41f
5:00 23 36 mph 1006mb 41f
4:00 17 36 mph 1006mb 41f
3:00 19 41 mph 1006mb 41f
2:00 23 40 mph 1006mb 42f
1:00 21 44 mph 1006mb 43f
10:00 29 48 mph 1005mb 42f
9:00 33 54 mph 1004mb 49f
8:00 30 48 mph 1005mb 49f
7:00 26 40 mph 1006mb 49f
6:00 21 34 mph 1007mb 49f